Time;durP1;ratioP1;P1;durP2;ratioP2;P2;SDS_P1;SDS_P2;PMS_P1;PMS_P2;Temp;Humidity;BMP_temperature;BMP_pressure;BME280_temperature;BME280_humidity;BME280_pressure;Samples;Min_cycle;Max_cycle;Signal;HPM_P1;HPM_P2
2022/01/06 00:00:37;;;;;;;3.72;1.20;;;3.10;99.90;;;;;;4955840;29;20403;-48
2022/01/06 00:03:03;;;;;;;3.50;1.10;;;3.20;99.90;;;;;;4956250;29;20501;-48
2022/01/06 00:05:28;;;;;;;4.68;1.15;;;3.10;99.90;;;;;;4957981;29;20833;-49
2022/01/06 00:07:54;;;;;;;2.53;1.00;;;3.10;99.90;;;;;;4957117;29;20482;-47
2022/01/06 00:10:20;;;;;;;3.92;1.23;;;3.10;99.90;;;;;;4957051;29;20405;-47
2022/01/06 00:13:02;;;;;;;5.15;1.50;;;3.10;99.90;;;;;;4955081;29;20431;-47
2022/01/06 00:18:22;;;;;;;4.40;1.40;;;3.00;99.90;;;;;;4954833;29;20881;-48
2022/01/06 00:25:50;;;;;;;4.90;1.57;;;2.90;99.90;;;;;;4954881;29;20418;-50
2022/01/06 00:28:17;;;;;;;3.37;1.27;;;2.90;99.90;;;;;;4953391;29;20436;-49
2022/01/06 00:30:43;;;;;;;3.78;1.10;;;2.90;99.90;;;;;;4952979;29;20934;-47
2022/01/06 00:33:10;;;;;;;4.35;1.20;;;2.90;99.90;;;;;;4954372;29;20710;-48
2022/01/06 00:35:36;;;;;;;3.60;1.02;;;2.90;99.90;;;;;;4956631;29;20829;-48
2022/01/06 00:38:02;;;;;;;3.90;1.50;;;2.90;99.90;;;;;;4961640;28;20431;-48
2022/01/06 00:40:28;;;;;;;6.80;1.40;;;2.90;99.90;;;;;;4958138;28;20451;-47
2022/01/06 00:42:53;;;;;;;4.30;1.10;;;2.90;99.90;;;;;;4975356;28;20513;-47
2022/01/06 00:45:19;;;;;;;2.20;1.13;;;2.90;99.90;;;;;;4957359;28;20506;-47
2022/01/06 00:47:45;;;;;;;3.97;1.40;;;2.90;99.90;;;;;;4958819;28;20423;-48
2022/01/06 00:50:11;;;;;;;4.93;1.15;;;2.90;99.90;;;;;;4974321;28;20392;-47
2022/01/06 00:52:37;;;;;;;6.93;1.70;;;2.90;99.90;;;;;;4958812;28;20463;-48
2022/01/06 00:55:03;;;;;;;3.30;1.00;;;2.80;99.90;;;;;;4958904;28;20408;-47
2022/01/06 00:57:29;;;;;;;4.07;1.10;;;2.80;99.90;;;;;;4958073;28;20396;-48
2022/01/06 00:59:55;;;;;;;3.63;1.33;;;2.80;99.90;;;;;;4957387;28;20539;-47
2022/01/06 01:02:21;;;;;;;9.07;1.48;;;2.70;99.90;;;;;;4955665;28;20490;-48
2022/01/06 01:04:47;;;;;;;5.05;1.27;;;2.70;99.90;;;;;;4956710;28;20423;-47
2022/01/06 01:07:13;;;;;;;3.55;1.20;;;2.70;99.90;;;;;;4956271;28;20416;-49
2022/01/06 01:09:39;;;;;;;2.53;1.10;;;2.60;99.90;;;;;;4956714;28;20834;-53
2022/01/06 01:12:06;;;;;;;3.42;1.27;;;2.60;99.90;;;;;;4957388;28;20428;-47
2022/01/06 01:14:43;;;;;;;4.68;1.20;;;2.60;99.90;;;;;;4958974;28;20442;-49
2022/01/06 01:17:13;;;;;;;5.57;1.20;;;2.60;99.90;;;;;;4955920;28;20502;-52
2022/01/06 01:19:39;;;;;;;3.65;1.40;;;2.60;99.90;;;;;;4958119;28;20961;-49
2022/01/06 01:22:04;;;;;;;4.43;1.33;;;2.60;99.90;;;;;;4958213;28;20972;-49
2022/01/06 01:24:30;;;;;;;5.10;1.30;;;2.60;99.90;;;;;;4958126;28;20462;-48
2022/01/06 01:26:56;;;;;;;4.63;1.60;;;2.60;99.90;;;;;;4957245;28;20745;-49
2022/01/06 01:29:22;;;;;;;3.28;1.05;;;2.50;99.90;;;;;;4957531;28;20681;-48
2022/01/06 01:31:52;;;;;;;5.07;1.30;;;2.50;99.90;;;;;;4974262;28;20388;-48
2022/01/06 01:34:23;;;;;;;3.90;1.30;;;2.40;99.90;;;;;;4974426;28;20491;-47
2022/01/06 01:36:49;;;;;;;3.50;1.25;;;2.40;99.90;;;;;;4956580;28;20567;-48
2022/01/06 01:39:15;;;;;;;3.95;1.10;;;2.40;99.90;;;;;;4956904;28;20435;-52
2022/01/06 01:41:41;;;;;;;2.83;1.20;;;2.40;99.90;;;;;;4957446;28;20474;-51
2022/01/06 01:44:12;;;;;;;5.65;1.30;;;2.40;99.90;;;;;;4974946;28;20416;-49
2022/01/06 01:46:45;;;;;;;4.72;1.23;;;2.40;99.90;;;;;;4973507;28;20399;-51
2022/01/06 01:51:45;;;;;;;9.85;1.45;;;2.30;99.90;;;;;;4975707;28;20840;-50
2022/01/06 01:54:12;;;;;;;4.90;1.23;;;2.30;99.90;;;;;;4976842;28;20418;-48
2022/01/06 01:56:38;;;;;;;4.72;1.40;;;2.40;99.90;;;;;;4959854;28;20404;-51
2022/01/06 01:59:04;;;;;;;3.00;1.30;;;2.40;99.90;;;;;;4959309;28;20395;-48
2022/01/06 02:01:32;;;;;;;6.25;1.50;;;2.40;99.90;;;;;;4959230;28;20448;-47
2022/01/06 02:03:57;;;;;;;3.72;1.38;;;2.30;99.90;;;;;;4958316;28;20885;-47
2022/01/06 02:06:24;;;;;;;4.97;1.40;;;2.30;99.90;;;;;;4958606;28;20463;-48
2022/01/06 02:08:51;;;;;;;4.88;1.55;;;2.30;99.90;;;;;;4974249;28;20396;-50
2022/01/06 02:11:18;;;;;;;8.52;2.00;;;2.30;99.90;;;;;;4956527;28;20400;-49
2022/01/06 02:13:50;;;;;;;5.28;1.40;;;2.30;99.90;;;;;;4973564;28;20815;-50
2022/01/06 02:16:27;;;;;;;5.05;1.70;;;2.30;99.90;;;;;;4956387;28;20491;-48
2022/01/06 02:18:54;;;;;;;4.67;1.67;;;2.20;99.90;;;;;;4955436;28;20532;-48
2022/01/06 02:21:20;;;;;;;3.67;1.60;;;2.30;99.90;;;;;;4954503;28;20393;-47
2022/01/06 02:23:46;;;;;;;4.65;1.50;;;2.30;99.90;;;;;;4971316;28;20411;-47
2022/01/06 02:26:12;;;;;;;3.42;1.25;;;2.30;99.90;;;;;;4971111;28;20392;-47
2022/01/06 02:28:40;;;;;;;7.63;1.48;;;2.30;99.90;;;;;;4972283;28;20392;-47
2022/01/06 02:31:06;;;;;;;6.75;1.52;;;2.30;99.90;;;;;;4955823;28;20396;-48
2022/01/06 02:33:32;;;;;;;3.10;1.15;;;2.30;99.90;;;;;;4957815;28;20876;-47
2022/01/06 02:35:58;;;;;;;4.55;1.42;;;2.30;99.90;;;;;;4957999;28;20526;-54
2022/01/06 02:38:24;;;;;;;5.03;1.50;;;2.30;99.90;;;;;;4956038;29;20440;-48
2022/01/06 02:40:50;;;;;;;4.80;1.20;;;2.20;99.90;;;;;;4971241;28;20508;-51
2022/01/06 02:43:18;;;;;;;5.40;1.52;;;2.20;99.90;;;;;;4955374;29;20437;-48
2022/01/06 02:45:46;;;;;;;6.70;1.70;;;2.20;99.90;;;;;;4972916;28;20741;-53
2022/01/06 02:48:14;;;;;;;2.72;1.25;;;2.10;99.90;;;;;;4975320;28;20390;-47
2022/01/06 02:50:48;;;;;;;5.30;1.20;;;2.10;99.90;;;;;;4974329;28;20400;-48
2022/01/06 02:53:15;;;;;;;6.72;1.58;;;2.10;99.90;;;;;;4975963;28;20480;-50
2022/01/06 02:55:47;;;;;;;3.50;1.30;;;2.10;99.90;;;;;;4974502;28;20408;-49
2022/01/06 02:58:13;;;;;;;2.53;1.20;;;2.20;99.90;;;;;;4973516;28;20400;-47
2022/01/06 03:00:39;;;;;;;3.13;1.10;;;2.10;99.90;;;;;;4974648;28;20764;-47
2022/01/06 03:03:05;;;;;;;3.40;1.10;;;2.10;99.90;;;;;;4974114;28;20801;-48
2022/01/06 03:05:30;;;;;;;5.80;1.40;;;2.10;99.90;;;;;;4973689;28;20497;-48
2022/01/06 03:07:56;;;;;;;3.85;0.90;;;2.10;99.90;;;;;;4973622;28;20400;-48
2022/01/06 03:10:23;;;;;;;8.23;1.60;;;2.10;99.90;;;;;;4973562;28;20400;-47
2022/01/06 03:12:49;;;;;;;3.70;1.13;;;2.10;99.90;;;;;;4974879;28;20455;-47
2022/01/06 03:15:20;;;;;;;3.72;1.10;;;2.10;99.90;;;;;;4976928;28;20392;-47
2022/01/06 03:17:57;;;;;;;3.08;1.10;;;2.10;99.90;;;;;;4977783;28;20495;-48
2022/01/06 03:20:25;;;;;;;4.28;1.13;;;2.10;99.90;;;;;;4977520;28;20535;-48
2022/01/06 03:22:53;;;;;;;3.55;1.27;;;2.10;99.90;;;;;;4976690;28;20396;-47
2022/01/06 03:25:19;;;;;;;4.50;1.23;;;2.10;99.90;;;;;;4975540;28;20420;-47
2022/01/06 03:27:45;;;;;;;6.25;1.40;;;2.10;99.90;;;;;;4975953;28;20396;-51
2022/01/06 03:30:13;;;;;;;4.25;1.45;;;2.10;99.90;;;;;;4977051;28;20451;-49
2022/01/06 03:32:39;;;;;;;2.15;1.20;;;2.10;99.90;;;;;;4977415;28;20863;-49
2022/01/06 03:35:06;;;;;;;6.17;1.40;;;2.10;99.90;;;;;;4977502;28;20463;-47
2022/01/06 03:37:32;;;;;;;4.78;0.95;;;2.10;99.90;;;;;;4977258;28;20387;-49
2022/01/06 03:40:04;;;;;;;2.00;1.02;;;2.10;99.90;;;;;;4979400;28;20409;-47
2022/01/06 03:42:30;;;;;;;3.80;1.10;;;2.10;99.90;;;;;;4980161;28;20486;-47
2022/01/06 03:44:56;;;;;;;4.28;1.00;;;2.10;99.90;;;;;;4997521;28;20505;-47
2022/01/06 03:47:22;;;;;;;3.83;1.10;;;2.10;99.90;;;;;;4978735;28;20433;-49
2022/01/06 03:49:47;;;;;;;4.23;1.10;;;2.10;99.90;;;;;;4978277;28;20398;-49
2022/01/06 03:52:13;;;;;;;2.77;1.07;;;2.10;99.90;;;;;;4978259;28;20478;-50
2022/01/06 03:54:39;;;;;;;2.08;0.85;;;2.10;99.90;;;;;;4978057;28;20516;-49
2022/01/06 03:57:05;;;;;;;3.38;1.05;;;2.10;99.90;;;;;;4995013;28;20390;-48
2022/01/06 03:59:30;;;;;;;3.28;1.23;;;2.10;99.90;;;;;;4977906;28;20803;-48
2022/01/06 04:01:56;;;;;;;3.03;1.00;;;2.00;99.90;;;;;;4976748;28;20480;-50
2022/01/06 04:04:21;;;;;;;2.43;1.10;;;2.00;99.90;;;;;;4976419;28;20420;-48
2022/01/06 04:06:47;;;;;;;2.60;1.07;;;2.00;99.90;;;;;;4994445;28;20396;-48
2022/01/06 04:09:13;;;;;;;4.60;1.00;;;2.10;99.90;;;;;;4979429;28;20410;-47
2022/01/06 04:11:39;;;;;;;4.57;1.45;;;2.00;99.90;;;;;;4976009;28;20389;-47
2022/01/06 04:14:04;;;;;;;2.70;1.27;;;2.00;99.90;;;;;;4977337;28;20803;-47
2022/01/06 04:16:34;;;;;;;2.80;1.20;;;2.00;99.90;;;;;;4978556;28;20394;-48
2022/01/06 04:19:00;;;;;;;3.20;1.17;;;2.00;99.90;;;;;;4978901;28;20686;-49
2022/01/06 04:21:25;;;;;;;3.63;1.40;;;2.00;99.90;;;;;;4978250;28;20877;-49
2022/01/06 04:23:51;;;;;;;3.17;1.17;;;2.00;99.90;;;;;;4978036;28;20734;-49
2022/01/06 04:26:16;;;;;;;4.03;1.20;;;2.00;99.90;;;;;;4979370;28;20395;-47
2022/01/06 04:28:43;;;;;;;4.55;1.17;;;2.00;99.90;;;;;;4978581;28;20399;-47
2022/01/06 04:31:09;;;;;;;4.38;1.38;;;1.90;99.90;;;;;;4977200;28;20394;-47
2022/01/06 04:33:35;;;;;;;5.68;1.42;;;1.90;99.90;;;;;;4977011;28;20387;-47
2022/01/06 04:36:02;;;;;;;4.25;1.48;;;1.90;99.90;;;;;;4977655;28;20493;-47
2022/01/06 04:38:27;;;;;;;4.78;1.20;;;1.90;99.90;;;;;;4975037;28;20501;-50
2022/01/06 04:40:53;;;;;;;1.70;1.10;;;1.90;99.90;;;;;;4974628;28;20734;-47
2022/01/06 04:43:19;;;;;;;4.32;1.20;;;1.90;99.90;;;;;;4974709;28;20400;-47
2022/01/06 04:45:45;;;;;;;4.88;1.20;;;1.90;99.90;;;;;;4974555;28;20416;-47
2022/01/06 04:48:11;;;;;;;4.05;1.23;;;1.90;99.90;;;;;;4975199;28;20389;-47
2022/01/06 04:50:37;;;;;;;3.42;1.00;;;1.90;99.90;;;;;;4974393;28;20435;-47
2022/01/06 04:53:02;;;;;;;3.70;1.17;;;1.90;99.90;;;;;;4973630;28;20676;-51
2022/01/06 04:55:28;;;;;;;3.53;1.10;;;1.90;99.90;;;;;;4972038;28;20443;-47
2022/01/06 04:57:54;;;;;;;6.30;1.58;;;1.90;99.90;;;;;;4972108;28;20407;-49
2022/01/06 05:00:19;;;;;;;4.05;1.40;;;1.80;99.90;;;;;;4972497;28;20399;-50
2022/01/06 05:02:45;;;;;;;4.23;1.20;;;1.80;99.90;;;;;;4973565;28;20432;-47
2022/01/06 05:05:13;;;;;;;3.73;1.23;;;1.80;99.90;;;;;;4974095;28;20546;-51
2022/01/06 05:07:40;;;;;;;4.60;1.80;;;1.80;99.90;;;;;;4974315;28;20812;-50
2022/01/06 05:10:06;;;;;;;5.05;1.58;;;1.80;99.90;;;;;;4974847;28;20466;-51
2022/01/06 05:12:33;;;;;;;2.97;1.27;;;1.80;99.90;;;;;;4974313;28;20396;-47
2022/01/06 05:14:59;;;;;;;1.98;1.33;;;1.80;99.90;;;;;;4974288;28;20748;-49
2022/01/06 05:17:24;;;;;;;3.78;1.33;;;1.90;99.90;;;;;;4974429;28;20436;-48
2022/01/06 05:19:50;;;;;;;3.50;1.40;;;1.80;99.90;;;;;;4974330;28;20415;-54
2022/01/06 05:22:15;;;;;;;3.80;1.30;;;1.80;99.90;;;;;;4973456;28;20462;-47
2022/01/06 05:24:41;;;;;;;4.10;1.60;;;1.80;99.90;;;;;;4973320;28;20451;-47
2022/01/06 05:27:10;;;;;;;3.10;1.57;;;1.80;99.90;;;;;;4972333;28;20447;-47
2022/01/06 05:29:37;;;;;;;4.50;1.67;;;1.70;99.90;;;;;;4971318;28;20569;-47
2022/01/06 05:32:03;;;;;;;5.93;1.67;;;1.70;99.90;;;;;;4970060;28;20419;-48
2022/01/06 05:34:28;;;;;;;3.58;1.15;;;1.70;99.90;;;;;;4969996;28;20477;-47
2022/01/06 05:36:54;;;;;;;4.43;1.50;;;1.70;99.90;;;;;;4970117;28;20394;-47
2022/01/06 05:39:19;;;;;;;3.03;1.30;;;1.70;99.90;;;;;;4973331;28;20936;-48
2022/01/06 05:41:46;;;;;;;4.88;1.58;;;1.70;99.90;;;;;;4974059;28;20410;-49
2022/01/06 05:44:12;;;;;;;3.38;1.70;;;1.70;99.90;;;;;;4975836;28;20410;-47
2022/01/06 05:46:38;;;;;;;3.38;1.73;;;1.60;99.90;;;;;;4975946;28;20489;-47
2022/01/06 05:49:03;;;;;;;3.63;1.60;;;1.60;99.90;;;;;;4976431;28;20422;-47
2022/01/06 05:51:29;;;;;;;4.97;1.75;;;1.60;99.90;;;;;;4976271;28;20466;-47
2022/01/06 05:53:55;;;;;;;3.37;1.60;;;1.70;99.90;;;;;;4976189;28;20667;-47
2022/01/06 05:56:21;;;;;;;4.37;1.67;;;1.70;99.90;;;;;;4975511;28;20397;-49
2022/01/06 05:58:47;;;;;;;3.28;1.40;;;1.70;99.90;;;;;;4975340;28;20618;-47
2022/01/06 06:01:13;;;;;;;3.72;1.83;;;1.70;99.90;;;;;;4974176;28;20397;-47
2022/01/06 06:03:39;;;;;;;2.65;1.40;;;1.70;99.90;;;;;;4973562;28;20386;-52
2022/01/06 06:06:05;;;;;;;3.45;1.45;;;1.70;99.90;;;;;;4971747;28;20441;-47
2022/01/06 06:08:31;;;;;;;3.55;1.50;;;1.70;99.90;;;;;;4971201;28;20437;-47
2022/01/06 06:10:56;;;;;;;3.72;1.55;;;1.70;99.90;;;;;;4972447;28;20399;-47
2022/01/06 06:13:22;;;;;;;4.17;1.60;;;1.70;99.90;;;;;;4972586;28;20390;-49
2022/01/06 06:15:48;;;;;;;5.07;1.52;;;1.60;99.90;;;;;;4987347;28;20599;-49
2022/01/06 06:18:14;;;;;;;3.42;1.75;;;1.60;99.90;;;;;;4969830;28;20854;-48
2022/01/06 06:20:40;;;;;;;3.40;1.60;;;1.70;99.90;;;;;;4970693;28;20386;-47
2022/01/06 06:23:07;;;;;;;4.22;1.75;;;1.70;99.90;;;;;;4972862;28;20394;-49
2022/01/06 06:25:33;;;;;;;3.15;1.60;;;1.70;99.90;;;;;;4987265;28;20946;-47
2022/01/06 06:27:59;;;;;;;4.30;1.80;;;1.60;99.90;;;;;;4966663;28;20398;-50
2022/01/06 06:30:25;;;;;;;3.53;1.83;;;1.60;99.90;;;;;;4966840;28;20667;-48
2022/01/06 06:32:51;;;;;;;5.93;1.70;;;1.60;99.90;;;;;;4964050;28;20493;-48
2022/01/06 06:35:17;;;;;;;6.10;2.20;;;1.60;99.90;;;;;;4982129;28;20839;-48
2022/01/06 06:37:42;;;;;;;5.50;2.60;;;1.60;99.90;;;;;;4965303;28;20406;-48
2022/01/06 06:40:09;;;;;;;3.83;1.70;;;1.60;99.90;;;;;;4965262;28;20822;-50
2022/01/06 06:42:35;;;;;;;6.97;2.83;;;1.60;99.90;;;;;;4967131;28;20410;-51
2022/01/06 06:45:00;;;;;;;6.13;2.40;;;1.60;99.90;;;;;;4968000;28;20452;-49
2022/01/06 06:47:26;;;;;;;5.30;2.60;;;1.60;99.90;;;;;;4971221;28;20394;-47
2022/01/06 06:49:55;;;;;;;4.15;2.30;;;1.50;99.90;;;;;;4973673;28;20390;-48
2022/01/06 06:52:21;;;;;;;9.00;4.00;;;1.50;99.90;;;;;;4974595;28;20469;-48
2022/01/06 06:54:48;;;;;;;11.48;4.75;;;1.50;99.90;;;;;;4992939;28;20821;-48
2022/01/06 06:57:14;;;;;;;6.38;2.92;;;1.50;99.90;;;;;;4973519;28;20477;-49
2022/01/06 06:59:39;;;;;;;4.97;2.20;;;1.50;99.90;;;;;;4989451;28;20454;-49
2022/01/06 07:02:05;;;;;;;4.47;2.35;;;1.50;99.90;;;;;;4968660;28;20402;-50
2022/01/06 07:04:31;;;;;;;6.80;2.53;;;1.50;99.90;;;;;;4971601;28;20418;-47
2022/01/06 07:06:57;;;;;;;4.72;2.50;;;1.60;99.90;;;;;;4973741;28;20823;-48
2022/01/06 07:09:22;;;;;;;9.20;3.03;;;1.50;99.90;;;;;;4972777;28;20823;-51
2022/01/06 07:11:48;;;;;;;5.65;2.47;;;1.50;99.90;;;;;;4972535;28;20400;-50
2022/01/06 07:14:13;;;;;;;4.57;2.50;;;1.50;99.90;;;;;;4975144;28;20661;-48
2022/01/06 07:16:39;;;;;;;7.17;2.77;;;1.50;99.90;;;;;;4975004;28;20390;-48
2022/01/06 07:19:05;;;;;;;7.20;3.13;;;1.50;99.90;;;;;;4975345;28;20382;-51
2022/01/06 07:21:30;;;;;;;7.13;2.93;;;1.50;99.90;;;;;;4991356;28;20432;-47
2022/01/06 07:23:56;;;;;;;6.22;2.60;;;1.50;99.90;;;;;;4988522;28;20493;-49
2022/01/06 07:26:21;;;;;;;5.30;2.63;;;1.50;99.90;;;;;;4971369;28;20660;-49
2022/01/06 07:28:50;;;;;;;9.57;3.07;;;1.50;99.90;;;;;;4971103;28;20398;-50
2022/01/06 07:31:16;;;;;;;7.20;2.97;;;1.50;99.90;;;;;;4970631;28;21007;-48
2022/01/06 07:33:42;;;;;;;5.63;2.70;;;1.50;99.90;;;;;;4969914;28;21004;-49
2022/01/06 07:36:07;;;;;;;7.17;3.20;;;1.50;99.90;;;;;;4969561;28;20506;-48
2022/01/06 07:38:33;;;;;;;8.67;3.10;;;1.50;99.90;;;;;;4968219;28;20466;-48
2022/01/06 07:40:59;;;;;;;11.13;3.30;;;1.50;99.90;;;;;;4967240;28;20434;-47
2022/01/06 07:43:25;;;;;;;6.47;3.20;;;1.40;99.90;;;;;;4966458;28;20855;-47
2022/01/06 07:45:50;;;;;;;12.23;3.95;;;1.40;99.90;;;;;;4969112;28;20412;-47
2022/01/06 07:48:18;;;;;;;7.43;3.25;;;1.30;99.90;;;;;;4969420;28;20498;-50
2022/01/06 07:50:45;;;;;;;5.97;2.70;;;1.30;99.90;;;;;;4969660;28;20407;-48
2022/01/06 07:53:12;;;;;;;6.20;2.83;;;1.40;99.90;;;;;;4966714;28;20805;-47
2022/01/06 07:55:38;;;;;;;5.20;2.72;;;1.40;99.90;;;;;;4966876;28;20474;-51
2022/01/06 07:58:04;;;;;;;6.95;2.83;;;1.50;99.90;;;;;;4965303;28;20741;-49
2022/01/06 08:00:30;;;;;;;6.18;2.83;;;1.50;99.90;;;;;;4964119;28;20392;-49
2022/01/06 08:02:56;;;;;;;6.13;3.00;;;1.50;99.90;;;;;;4963891;28;20552;-49
2022/01/06 08:05:25;;;;;;;6.18;2.80;;;1.50;99.90;;;;;;4965129;28;20419;-50
2022/01/06 08:07:51;;;;;;;4.93;2.65;;;1.50;99.90;;;;;;4965663;28;20392;-48
2022/01/06 08:10:17;;;;;;;5.00;1.93;;;1.60;99.90;;;;;;4965878;28;20533;-51
2022/01/06 08:12:43;;;;;;;6.35;2.50;;;1.60;99.90;;;;;;4966157;28;20543;-48
2022/01/06 08:15:09;;;;;;;4.53;2.10;;;1.60;99.90;;;;;;4964245;28;20955;-50
2022/01/06 08:17:36;;;;;;;7.03;2.13;;;1.60;99.90;;;;;;4964613;28;20490;-48
2022/01/06 08:20:06;;;;;;;8.37;2.20;;;1.70;99.90;;;;;;4963491;28;20491;-49
2022/01/06 08:22:32;;;;;;;7.00;2.22;;;1.70;99.90;;;;;;4963649;28;20388;-49
2022/01/06 08:24:58;;;;;;;7.55;2.20;;;1.70;99.90;;;;;;4965144;28;20721;-49
2022/01/06 08:27:24;;;;;;;3.97;1.80;;;1.80;99.90;;;;;;4967027;28;20491;-49
2022/01/06 08:29:52;;;;;;;6.25;2.03;;;1.80;99.90;;;;;;4965677;28;20420;-49
2022/01/06 08:32:18;;;;;;;4.65;1.77;;;1.80;99.90;;;;;;4964622;28;20450;-47
2022/01/06 08:34:44;;;;;;;5.88;1.98;;;1.80;99.90;;;;;;4968024;28;20436;-49
2022/01/06 08:37:10;;;;;;;5.90;1.83;;;1.80;99.90;;;;;;4968244;28;20797;-51
2022/01/06 08:39:36;;;;;;;5.30;1.80;;;1.80;99.90;;;;;;4969998;28;20415;-48
2022/01/06 08:42:02;;;;;;;4.53;1.60;;;1.90;99.90;;;;;;4969469;28;20402;-47
2022/01/06 08:44:28;;;;;;;7.28;1.50;;;1.90;99.90;;;;;;4968844;28;20407;-51
2022/01/06 08:46:55;;;;;;;4.17;1.53;;;1.90;99.90;;;;;;4968478;28;20419;-52
2022/01/06 08:49:21;;;;;;;9.73;2.10;;;1.90;99.90;;;;;;4987244;28;20389;-48
2022/01/06 08:51:47;;;;;;;9.15;2.00;;;1.90;99.90;;;;;;4969694;28;20394;-48
2022/01/06 08:54:13;;;;;;;4.70;1.70;;;1.90;99.90;;;;;;4967150;28;20406;-50
2022/01/06 08:56:38;;;;;;;7.60;1.80;;;1.90;99.90;;;;;;4967824;28;20425;-50
2022/01/06 08:59:05;;;;;;;4.57;1.53;;;1.90;99.90;;;;;;4968589;28;20662;-48
2022/01/06 09:01:31;;;;;;;4.40;1.75;;;2.00;99.90;;;;;;4968009;28;20678;-51
2022/01/06 09:03:57;;;;;;;6.63;2.10;;;2.00;99.90;;;;;;4969274;28;20379;-47
2022/01/06 09:06:23;;;;;;;4.78;1.67;;;2.00;99.90;;;;;;4970911;28;20402;-49
2022/01/06 09:08:48;;;;;;;3.58;1.55;;;2.10;99.90;;;;;;4969154;28;20698;-50
2022/01/06 09:11:14;;;;;;;5.70;1.75;;;2.10;99.90;;;;;;4970747;28;20476;-48
2022/01/06 09:13:41;;;;;;;3.88;1.60;;;2.10;99.90;;;;;;4968122;28;20702;-50
2022/01/06 09:16:08;;;;;;;9.20;1.95;;;2.10;99.90;;;;;;4983977;28;20457;-47
2022/01/06 09:18:39;;;;;;;6.68;1.95;;;2.30;99.90;;;;;;4966839;28;20682;-48
2022/01/06 09:21:05;;;;;;;5.53;1.80;;;2.50;99.90;;;;;;4966468;28;20919;-48
2022/01/06 09:23:32;;;;;;;6.43;1.60;;;2.90;99.90;;;;;;4967400;28;20390;-49
2022/01/06 09:25:57;;;;;;;6.72;1.90;;;3.40;99.90;;;;;;4966831;28;20412;-51
2022/01/06 09:28:23;;;;;;;4.53;1.80;;;4.00;99.90;;;;;;4968872;28;20469;-50
2022/01/06 09:30:51;;;;;;;4.43;1.63;;;4.80;99.90;;;;;;4969002;28;20864;-47
2022/01/06 09:33:20;;;;;;;5.40;1.67;;;5.40;99.90;;;;;;4970776;28;20386;-52
2022/01/06 09:35:46;;;;;;;6.97;1.80;;;5.70;99.90;;;;;;4986676;28;20394;-47
2022/01/06 09:38:13;;;;;;;5.80;1.70;;;5.40;99.90;;;;;;4985927;28;20472;-51
2022/01/06 09:40:42;;;;;;;4.18;1.80;;;5.20;99.90;;;;;;4985315;28;20437;-51
2022/01/06 09:43:11;;;;;;;7.13;1.83;;;5.00;99.90;;;;;;4968832;28;20398;-49
2022/01/06 09:45:41;;;;;;;7.53;1.70;;;4.90;99.90;;;;;;4970337;28;21090;-50
2022/01/06 09:48:08;;;;;;;4.72;1.52;;;4.60;99.90;;;;;;4940205;28;20398;-49
2022/01/06 09:50:42;;;;;;;6.25;1.88;;;4.50;99.90;;;;;;4973833;28;20390;-50
2022/01/06 09:53:14;;;;;;;6.55;1.85;;;4.30;99.90;;;;;;4973731;28;20395;-49
2022/01/06 09:55:41;;;;;;;5.00;1.45;;;4.20;99.90;;;;;;4958331;28;20417;-52
2022/01/06 09:58:06;;;;;;;5.63;1.90;;;4.30;99.90;;;;;;4972351;28;20402;-49
2022/01/06 10:00:35;;;;;;;5.53;1.60;;;4.30;99.90;;;;;;4967995;28;20672;-48
2022/01/06 10:03:06;;;;;;;6.93;1.92;;;4.20;99.90;;;;;;4949740;28;20388;-49
2022/01/06 10:05:46;;;;;;;5.90;1.92;;;4.10;99.90;;;;;;4946320;28;20655;-50
2022/01/06 10:08:13;;;;;;;4.32;1.52;;;4.00;99.90;;;;;;4946349;28;20890;-49
2022/01/06 10:10:40;;;;;;;4.55;1.60;;;4.10;99.90;;;;;;4963595;28;20964;-53
2022/01/06 10:13:08;;;;;;;5.63;2.00;;;4.10;99.90;;;;;;4961193;28;20475;-48
2022/01/06 10:15:38;;;;;;;7.63;2.10;;;4.00;99.90;;;;;;4948718;28;20404;-47
2022/01/06 10:18:16;;;;;;;7.32;2.13;;;3.90;99.90;;;;;;4950144;28;20395;-48
2022/01/06 10:20:43;;;;;;;6.78;1.77;;;4.00;99.90;;;;;;4964849;28;20427;-51
2022/01/06 10:23:15;;;;;;;6.90;1.90;;;4.00;99.90;;;;;;4948827;28;20404;-49
2022/01/06 10:25:49;;;;;;;2.75;1.30;;;4.10;99.90;;;;;;4949297;28;20424;-52
2022/01/06 10:28:20;;;;;;;7.25;1.70;;;4.20;99.90;;;;;;4950303;28;20681;-51
2022/01/06 10:30:49;;;;;;;4.57;1.40;;;4.30;99.90;;;;;;4965646;28;20934;-47
2022/01/06 10:33:20;;;;;;;4.70;1.42;;;4.40;99.90;;;;;;4947618;28;20988;-49
2022/01/06 10:35:48;;;;;;;4.22;1.60;;;4.40;99.90;;;;;;4962407;28;20808;-49
2022/01/06 10:38:24;;;;;;;5.97;1.63;;;4.40;99.90;;;;;;4947401;28;20423;-49
2022/01/06 10:40:50;;;;;;;4.43;1.60;;;4.50;99.90;;;;;;4962431;28;20396;-49
2022/01/06 10:43:15;;;;;;;5.00;1.47;;;4.70;99.90;;;;;;4962111;28;20418;-50
2022/01/06 10:45:41;;;;;;;5.27;1.60;;;4.80;99.90;;;;;;4964065;28;20750;-52
2022/01/06 10:48:07;;;;;;;7.15;1.60;;;4.80;99.90;;;;;;4964523;28;20396;-49
2022/01/06 10:50:38;;;;;;;3.58;1.35;;;4.90;99.90;;;;;;4966450;28;20995;-50
2022/01/06 10:53:10;;;;;;;2.97;1.15;;;5.00;99.90;;;;;;4970858;28;20395;-49
2022/01/06 10:55:46;;;;;;;4.65;1.40;;;5.10;99.90;;;;;;4971315;28;20411;-49
2022/01/06 10:58:19;;;;;;;4.78;1.33;;;5.10;99.90;;;;;;4970662;28;20396;-52
2022/01/06 11:01:01;;;;;;;4.10;1.38;;;5.10;99.90;;;;;;4971341;28;20953;-51
2022/01/06 11:03:33;;;;;;;6.38;1.58;;;5.20;99.90;;;;;;4970893;28;20461;-48
2022/01/06 11:06:02;;;;;;;4.22;1.35;;;5.30;99.90;;;;;;4971133;28;20404;-48
2022/01/06 11:08:39;;;;;;;4.82;1.60;;;5.30;99.90;;;;;;4970290;28;20395;-49
2022/01/06 11:13:45;;;;;;;2.15;1.08;;;5.40;99.90;;;;;;4972763;28;20446;-49
2022/01/06 11:16:13;;;;;;;3.40;1.03;;;5.60;99.90;;;;;;4972539;28;20601;-49
2022/01/06 11:18:57;;;;;;;3.17;1.23;;;5.70;99.90;;;;;;4970331;28;20501;-49
2022/01/06 11:21:43;;;;;;;3.65;1.45;;;5.70;99.90;;;;;;4967852;28;20681;-49
2022/01/06 11:24:14;;;;;;;3.75;1.45;;;5.90;99.90;;;;;;4967328;28;20392;-53
2022/01/06 11:27:02;;;;;;;3.47;1.40;;;6.00;99.90;;;;;;4970018;28;20388;-50
2022/01/06 11:29:42;;;;;;;5.35;1.70;;;5.90;99.90;;;;;;4971229;28;20864;-53
2022/01/06 11:32:23;;;;;;;3.22;1.30;;;5.90;99.90;;;;;;4968593;28;20661;-49
2022/01/06 11:35:04;;;;;;;4.20;1.33;;;6.00;99.90;;;;;;4973796;28;20419;-47
2022/01/06 11:37:45;;;;;;;3.20;1.20;;;6.00;99.90;;;;;;4973699;28;20384;-50
2022/01/06 11:40:16;;;;;;;5.43;1.52;;;5.90;99.90;;;;;;4957216;28;20403;-51
2022/01/06 11:42:56;;;;;;;4.70;1.30;;;6.30;99.90;;;;;;4974052;28;20468;-48
2022/01/06 11:45:21;;;;;;;8.00;1.70;;;6.40;99.90;;;;;;4973469;28;20611;-48
2022/01/06 11:47:57;;;;;;;3.10;1.30;;;6.70;99.90;;;;;;4988943;28;20899;-48
2022/01/06 11:50:27;;;;;;;3.80;1.47;;;6.80;99.90;;;;;;4949918;28;20440;-49
2022/01/06 11:53:01;;;;;;;4.25;1.00;;;7.10;99.90;;;;;;4969465;28;20396;-51
2022/01/06 11:55:39;;;;;;;3.67;1.25;;;7.10;99.90;;;;;;4969267;28;20497;-47
2022/01/06 11:58:22;;;;;;;4.53;1.50;;;7.20;99.90;;;;;;4954059;29;21033;-49
2022/01/06 12:01:12;;;;;;;6.63;1.30;;;7.10;99.90;;;;;;4937122;29;20410;-51
2022/01/06 12:03:45;;;;;;;5.07;1.35;;;7.00;99.90;;;;;;4936078;29;20402;-48
2022/01/06 12:06:32;;;;;;;3.10;1.15;;;7.00;99.90;;;;;;4952760;29;20429;-50
2022/01/06 12:08:59;;;;;;;2.45;1.00;;;7.10;99.90;;;;;;4954383;29;20691;-48
2022/01/06 12:11:33;;;;;;;4.17;1.70;;;7.30;99.90;;;;;;4953864;29;20451;-50
2022/01/06 12:14:01;;;;;;;7.20;1.50;;;7.50;99.90;;;;;;4954619;29;20385;-48
2022/01/06 12:16:37;;;;;;;4.07;1.45;;;7.40;99.90;;;;;;4953277;29;20416;-50
2022/01/06 12:19:19;;;;;;;4.97;1.30;;;7.60;99.90;;;;;;4952221;29;20462;-47
2022/01/06 12:21:47;;;;;;;3.13;1.33;;;7.80;99.90;;;;;;4949672;29;20469;-49
2022/01/06 12:24:15;;;;;;;3.70;1.40;;;7.50;99.90;;;;;;4948559;29;20489;-47
2022/01/06 12:26:43;;;;;;;5.60;1.85;;;7.70;99.90;;;;;;4946645;29;20405;-48
2022/01/06 12:29:17;;;;;;;4.13;1.30;;;7.60;99.90;;;;;;4946442;29;20481;-49
2022/01/06 12:31:47;;;;;;;4.00;1.10;;;7.60;99.90;;;;;;4946191;29;20429;-52
2022/01/06 12:34:14;;;;;;;4.25;1.30;;;7.60;99.90;;;;;;4946329;29;20410;-49
2022/01/06 12:36:45;;;;;;;3.60;1.48;;;7.60;99.90;;;;;;4948277;29;20461;-50
2022/01/06 12:39:22;;;;;;;4.22;1.38;;;7.30;99.90;;;;;;4949794;29;20398;-50
2022/01/06 12:41:49;;;;;;;3.75;1.38;;;7.30;99.90;;;;;;4952338;29;20405;-51
2022/01/06 12:44:27;;;;;;;3.95;1.30;;;7.30;99.90;;;;;;4946014;28;20401;-49
2022/01/06 12:46:53;;;;;;;4.35;1.40;;;7.50;99.90;;;;;;4946136;29;20995;-51
2022/01/06 12:49:21;;;;;;;4.80;1.58;;;7.50;99.90;;;;;;4951066;28;21266;-50
2022/01/06 12:51:49;;;;;;;4.35;1.30;;;7.40;99.90;;;;;;4967205;28;20396;-51
2022/01/06 12:54:20;;;;;;;3.13;1.13;;;7.40;99.90;;;;;;4967303;28;20403;-47
2022/01/06 12:56:58;;;;;;;2.38;1.20;;;7.40;99.90;;;;;;4968151;28;20396;-49
2022/01/06 12:59:34;;;;;;;5.50;1.25;;;7.50;99.90;;;;;;4969325;28;20396;-47
2022/01/06 13:02:07;;;;;;;2.70;0.90;;;7.40;99.90;;;;;;4969150;28;20666;-47
2022/01/06 13:04:38;;;;;;;4.25;1.20;;;7.80;99.90;;;;;;4953369;28;20988;-48
2022/01/06 13:07:09;;;;;;;6.57;1.52;;;7.90;99.90;;;;;;4968596;28;20395;-49
2022/01/06 13:09:36;;;;;;;4.15;1.30;;;7.80;99.90;;;;;;4968098;28;20388;-52
2022/01/06 13:12:07;;;;;;;4.60;1.50;;;7.80;99.90;;;;;;4969426;28;20389;-50
2022/01/06 13:14:46;;;;;;;4.05;1.38;;;7.80;99.90;;;;;;4970526;28;20466;-51